Bagley, Iowa
Current Conditions -  °F | °C
As of 9:55 AM on Sunday 21 Dec 2014 (Local Time) from KPRO Reporting Station
Haze Haze  
Wind Chill: 28°   Ceiling: 900
Heat Index: 38°   Visibility: 4mi
Dew Point: 37°   Wind: 17mph
Humidity: 95%   Direction: 180°S
Pressure: 29.91"   Gusts: 23mph
Location:  41.85°N, 94.43°W
Report Text: KPRO 211555Z AUTO 18015G20KT 4SM BR OVC009 03/03 A2991 RMK AO2 T00320025
Loading
Personal Weather Stations






























Interactive Weather Map New forecast layout! Learn more

10-Day Weather Forecast

Advertisements
Track Severe Weather on mobile